Saturday, November 18, 2017, 11:54 PM EST
Back to Local

KCJR, Culpeper, Culpeper County Airport

Location: Elkwood, VA, United States Lat: 38.527
Local Time: 11:54 PM EST ( 4:54 GMT) Lon: -77.859
Time Zone: US/Eastern Elev: 311 ft

Show me the last for .
Show Decoded

2017-11-18 23:35 METAR KCJR 190435Z AUTO 20011G16KT 10SM BKN041 BKN060 BKN110 17/08 A2943 RMK AO2
                 T01720083 =
2017-11-18 23:15 METAR KCJR 190415Z AUTO 19010G15KT 10SM CLR 17/08 A2943 RMK AO2 T01710081 =
2017-11-18 22:55 METAR KCJR 190355Z AUTO 19011G17KT 10SM SCT041 17/08 A2944 RMK AO2 T01700080 =
2017-11-18 22:35 METAR KCJR 190335Z AUTO 20010G17KT 10SM SCT041 17/08 A2946 RMK AO2 T01700078 =
2017-11-18 22:15 METAR KCJR 190315Z AUTO 20014G22KT 10SM CLR 17/08 A2948 RMK AO2 T01710077 =
2017-11-18 21:55 METAR KCJR 190255Z AUTO 20013G20KT 10SM CLR 17/08 A2947 RMK AO2 T01710075 =
2017-11-18 21:35 METAR KCJR 190235Z AUTO 20011G21KT 10SM CLR 17/07 A2947 RMK AO2 T01710074 =
2017-11-18 21:15 METAR KCJR 190215Z AUTO 20015G23KT 10SM CLR 17/07 A2950 RMK AO2 T01710072 =
2017-11-18 20:55 METAR KCJR 190155Z AUTO 20015G24KT 10SM SCT075 17/07 A2951 RMK AO2 T01710070 =
2017-11-18 20:35 METAR KCJR 190135Z AUTO 21012G22KT 10SM BKN075 17/07 A2953 RMK AO2 T01720070 =
2017-11-18 20:15 METAR KCJR 190115Z AUTO 21013G20KT 10SM SCT075 17/07 A2954 RMK AO2 T01690068 =
2017-11-18 19:55 METAR KCJR 190055Z AUTO 21014G23KT 10SM CLR 17/07 A2955 RMK AO2 T01710066 =
2017-11-18 19:35 METAR KCJR 190035Z AUTO 21015G19KT 10SM CLR 17/06 A2954 RMK AO2 T01700063 =
2017-11-18 19:15 METAR KCJR 190015Z AUTO 20012G19KT 10SM CLR 17/06 A2954 RMK AO2 T01710060 =
2017-11-18 18:55 METAR KCJR 182355Z AUTO 20009G19KT 10SM CLR 17/06 A2955 RMK AO2 T01710057 10171
                 20141 =
2017-11-18 18:35 METAR KCJR 182335Z AUTO 19009G15KT 10SM CLR 17/05 A2956 RMK AO2 T01710054 =
2017-11-18 18:15 METAR KCJR 182315Z AUTO 19008G16KT 10SM CLR 17/05 A2957 RMK AO2 T01710052 =
2017-11-18 17:55 METAR KCJR 182255Z AUTO 19009G17KT 10SM CLR 17/05 A2958 RMK AO2 T01710050 =
2017-11-18 17:35 METAR KCJR 182235Z AUTO 19009G16KT 10SM CLR 17/05 A2958 RMK AO2 T01700047 =
2017-11-18 17:15 METAR KCJR 182215Z AUTO 18007KT 10SM CLR 17/05 A2958 RMK AO2 T01650045 =
2017-11-18 16:55 METAR KCJR 182155Z AUTO 19006KT 10SM CLR 17/04 A2960 RMK AO2 T01650043 =
2017-11-18 16:35 METAR KCJR 182135Z AUTO 19006KT 10SM CLR 17/04 A2959 RMK AO2 T01660043 =
2017-11-18 16:15 METAR KCJR 182115Z AUTO 19008KT 10SM CLR 17/04 A2960 RMK AO2 T01670040 =
2017-11-18 15:55 METAR KCJR 182055Z AUTO 18007KT 10SM CLR 17/04 A2961 RMK AO2 T01660040 =
2017-11-18 15:35 METAR KCJR 182035Z AUTO 18006KT 10SM SCT095 17/04 A2962 RMK AO2 T01650038 =
2017-11-18 15:15 METAR KCJR 182015Z AUTO 18005KT 10SM SCT120 16/04 A2963 RMK AO2 T01610037 =
2017-11-18 14:55 METAR KCJR 181955Z AUTO 19004KT 10SM SCT090 SCT120 15/04 A2964 RMK AO2 T01480035
                 =
2017-11-18 14:35 METAR KCJR 181935Z AUTO 18005KT 10SM BKN100 BKN120 15/03 A2965 RMK AO2 T01450034
                 =
2017-11-18 14:15 METAR KCJR 181915Z AUTO 17004KT 10SM -RA OVC100 14/03 A2966 RMK AO2 T01420034 =
2017-11-18 13:55 METAR KCJR 181855Z AUTO 19005KT 10SM SCT085 BKN110 14/03 A2968 RMK AO2 T01430029
                 =
2017-11-18 13:35 METAR KCJR 181835Z AUTO 19007G15KT 10SM SCT120 15/03 A2968 RMK AO2 T01450027 =
2017-11-18 13:15 METAR KCJR 181815Z AUTO 20008G17KT 10SM SCT120 15/03 A2970 RMK AO2 T01450025 =
2017-11-18 12:55 METAR KCJR 181755Z AUTO 21013G18KT 10SM CLR 15/02 A2971 RMK AO2 T01450020 10146
                 20045 =
2017-11-18 12:35 METAR KCJR 181735Z AUTO 21016G21KT 10SM CLR 14/02 A2971 RMK AO2 T01430020 =
2017-11-18 12:15 METAR KCJR 181715Z AUTO 20014G20KT 10SM CLR 14/02 A2972 RMK AO2 T01430020 =
2017-11-18 11:55 METAR KCJR 181655Z AUTO 20011G21KT 10SM CLR 13/02 A2974 RMK AO2 T01310021 =
2017-11-18 11:35 METAR KCJR 181635Z AUTO 21010G22KT 10SM CLR 12/02 A2977 RMK AO2 T01210018 =
2017-11-18 11:15 METAR KCJR 181615Z AUTO 19012G18KT 10SM CLR 12/02 A2978 RMK AO2 T01150016 =
2017-11-18 10:55 METAR KCJR 181555Z AUTO 21009G17KT 10SM CLR 12/02 A2980 RMK AO2 T01160017 =
2017-11-18 10:35 METAR KCJR 181535Z AUTO 20010G18KT 170V230 10SM CLR 11/01 A2982 RMK AO2
                 T01050014 =
2017-11-18 10:15 METAR KCJR 181515Z AUTO 20009G16KT 10SM CLR 10/01 A2983 RMK AO2 T01010013 =
2017-11-18 09:55 METAR KCJR 181455Z AUTO 21009KT 10SM CLR 09/01 A2985 RMK AO2 T00940014 =
2017-11-18 09:35 METAR KCJR 181435Z AUTO 20010G14KT 10SM CLR 09/01 A2985 RMK AO2 T00850010 =
2017-11-18 09:15 METAR KCJR 181415Z AUTO 19008KT 10SM CLR 08/01 A2986 RMK AO2 T00810008 =
2017-11-18 08:55 METAR KCJR 181355Z AUTO 18008KT 10SM CLR 07/00 A2987 RMK AO2 T00710004 =
2017-11-18 08:35 METAR KCJR 181335Z AUTO 20009KT 10SM CLR 07/00 A2989 RMK AO2 T00660002 =
2017-11-18 08:15 METAR KCJR 181315Z AUTO 19007KT 10SM CLR 06/00 A2990 RMK AO2 T00630000 =
2017-11-18 07:55 METAR KCJR 181255Z AUTO 19008KT 10SM CLR 06/00 A2990 RMK AO2 T00600000 =
2017-11-18 07:35 METAR KCJR 181235Z AUTO 18006KT 10SM CLR 05/00 A2990 RMK AO2 T00511002 =
2017-11-18 07:15 METAR KCJR 181215Z AUTO 19006KT 10SM CLR 05/00 A2991 RMK AO2 T00451005 =
2017-11-18 06:55 METAR KCJR 181155Z AUTO 18008KT 10SM CLR 05/M01 A2990 RMK AO2 T00451007 10045
                 21030 =
2017-11-18 06:35 METAR KCJR 181135Z AUTO 18008KT 10SM CLR 05/M01 A2993 RMK AO2 T00451007 =
2017-11-18 06:15 METAR KCJR 181115Z AUTO 18007KT 10SM CLR 04/M01 A2994 RMK AO2 T00411009 =
2017-11-18 05:55 METAR KCJR 181055Z AUTO 18007KT 10SM CLR 04/M01 A2994 RMK AO2 T00401008 =
2017-11-18 05:35 METAR KCJR 181035Z AUTO 17005KT 10SM CLR 04/M01 A2996 RMK AO2 T00371008 =
2017-11-18 05:15 METAR KCJR 181015Z AUTO 18004KT 10SM CLR 02/M01 A2996 RMK AO2 T00201014 =
2017-11-18 04:55 METAR KCJR 180955Z AUTO 00000KT 10SM CLR 01/M02 A2997 RMK AO2 T00071021 =
2017-11-18 04:35 METAR KCJR 180935Z AUTO 00000KT 10SM CLR M01/M02 A2998 RMK AO2 T10081025 =
2017-11-18 04:15 METAR KCJR 180915Z AUTO 15003KT 10SM CLR M02/M03 A2999 RMK AO2 T10201033 =
2017-11-18 03:55 METAR KCJR 180855Z AUTO 00000KT 10SM CLR M02/M03 A3001 RMK AO2 T10201035 =
2017-11-18 03:35 METAR KCJR 180835Z AUTO 00000KT 10SM CLR M02/M03 A3001 RMK AO2 T10181032 =
2017-11-18 03:15 METAR KCJR 180815Z AUTO 00000KT 10SM CLR M02/M04 A3001 RMK AO2 T10251036 =
2017-11-18 02:55 METAR KCJR 180755Z AUTO 00000KT 10SM CLR M02/M04 A3002 RMK AO2 T10241036 =
2017-11-18 02:35 METAR KCJR 180735Z AUTO 00000KT 10SM CLR M02/M03 A3003 RMK AO2 T10211032 =
2017-11-18 02:15 METAR KCJR 180715Z AUTO 00000KT 10SM CLR M02/M03 A3004 RMK AO2 T10201032 =
2017-11-18 01:55 METAR KCJR 180655Z AUTO 00000KT 10SM CLR M02/M03 A3004 RMK AO2 T10231035 =
2017-11-18 01:35 METAR KCJR 180635Z AUTO 00000KT 10SM CLR M02/M03 A3005 RMK AO2 T10241035 =
2017-11-18 01:15 METAR KCJR 180615Z AUTO 00000KT 10SM CLR M02/M04 A3006 RMK AO2 T10221036 =
2017-11-18 00:55 METAR KCJR 180555Z AUTO 00000KT 10SM CLR M02/M03 A3007 RMK AO2 T10231034 10019
                 21023 =
2017-11-18 00:35 METAR KCJR 180535Z AUTO 00000KT 10SM CLR M02/M03 A3008 RMK AO2 T10191030 =
2017-11-18 00:15 METAR KCJR 180515Z AUTO 00000KT 10SM CLR M02/M03 A3009 RMK AO2 T10181031 =
2017-11-17 23:55 METAR KCJR 180455Z AUTO 00000KT 10SM CLR M01/M03 A3010 RMK AO2 T10121026
                 401381018 =

Support USWX by starting your Amazon purchase here.